Time;durP1;ratioP1;P1;durP2;ratioP2;P2;SDS_P1;SDS_P2;PMS_P1;PMS_P2;Temp;Humidity;BMP_temperature;BMP_pressure;BME280_temperature;BME280_humidity;BME280_pressure;Samples;Min_cycle;Max_cycle;Signal;HPM_P1;HPM_P2
2023/06/24 00:00:11;;;;;;;5.85;3.55;;;19.90;59.00;;;;;;5041163;28;20039;-62
2023/06/24 00:02:37;;;;;;;4.85;3.00;;;19.90;59.00;;;;;;5042281;28;20033;-62
2023/06/24 00:05:05;;;;;;;4.25;3.08;;;19.90;59.00;;;;;;5040257;28;20125;-62
2023/06/24 00:07:30;;;;;;;4.70;2.58;;;19.90;58.70;;;;;;5040788;28;20096;-62
2023/06/24 00:09:56;;;;;;;3.78;2.45;;;19.90;58.50;;;;;;5041019;28;20492;-61
2023/06/24 00:12:22;;;;;;;2.40;2.20;;;19.90;58.20;;;;;;5037599;28;20044;-61
2023/06/24 00:14:48;;;;;;;3.67;2.50;;;19.90;58.00;;;;;;5041090;28;20051;-61
2023/06/24 00:17:16;;;;;;;3.10;2.45;;;19.90;57.70;;;;;;5042039;28;20026;-61
2023/06/24 00:19:43;;;;;;;4.55;2.67;;;19.90;57.60;;;;;;5037773;28;20025;-61
2023/06/24 00:22:09;;;;;;;3.35;2.50;;;19.90;57.70;;;;;;5040262;28;20056;-61
2023/06/24 00:24:35;;;;;;;6.53;2.80;;;19.80;57.80;;;;;;5040621;28;20053;-62
2023/06/24 00:27:01;;;;;;;2.83;2.45;;;19.80;58.00;;;;;;5041462;28;20069;-62
2023/06/24 00:29:26;;;;;;;4.05;2.63;;;19.80;57.90;;;;;;5036479;28;20029;-61
2023/06/24 00:31:52;;;;;;;9.45;2.88;;;19.70;57.90;;;;;;5036361;28;20029;-61
2023/06/24 00:34:19;;;;;;;6.72;2.75;;;19.70;58.00;;;;;;5022792;28;20026;-62
2023/06/24 00:36:46;;;;;;;2.50;2.25;;;19.70;58.10;;;;;;5041585;28;20392;-62
2023/06/24 00:39:12;;;;;;;3.70;2.70;;;19.70;58.10;;;;;;5040154;28;20017;-62
2023/06/24 00:41:38;;;;;;;3.75;2.47;;;19.70;58.20;;;;;;5040421;28;20108;-62
2023/06/24 00:44:04;;;;;;;4.72;2.65;;;19.70;58.10;;;;;;5041529;28;20041;-62
2023/06/24 00:46:33;;;;;;;5.57;2.58;;;19.60;58.10;;;;;;5040265;28;20037;-62
2023/06/24 00:49:00;;;;;;;4.22;2.70;;;19.60;58.10;;;;;;5040174;28;20551;-62
2023/06/24 00:51:29;;;;;;;4.50;2.67;;;19.60;58.10;;;;;;5040455;28;20036;-62
2023/06/24 00:53:55;;;;;;;3.55;2.78;;;19.60;58.20;;;;;;5041420;28;20025;-61
2023/06/24 00:56:25;;;;;;;3.33;2.20;;;19.50;58.20;;;;;;5037482;28;20041;-61
2023/06/24 00:58:52;;;;;;;4.60;2.50;;;19.50;58.40;;;;;;5040309;28;20045;-61
2023/06/24 01:01:18;;;;;;;4.22;2.70;;;19.50;58.50;;;;;;5040081;28;20439;-61
2023/06/24 01:03:45;;;;;;;2.65;2.40;;;19.50;58.70;;;;;;5041291;28;20068;-60
2023/06/24 01:06:11;;;;;;;4.25;2.83;;;19.50;58.90;;;;;;5040135;28;20085;-60
2023/06/24 01:08:37;;;;;;;5.05;2.90;;;19.50;59.00;;;;;;5040114;28;20033;-61
2023/06/24 01:11:03;;;;;;;4.97;2.63;;;19.50;59.00;;;;;;5041108;28;20113;-61
2023/06/24 01:13:28;;;;;;;3.38;2.58;;;19.50;59.10;;;;;;5040339;28;20037;-61
2023/06/24 01:15:55;;;;;;;5.40;2.90;;;19.50;59.10;;;;;;5037816;28;20309;-61
2023/06/24 01:18:43;;;;;;;4.43;2.85;;;19.50;59.20;;;;;;5044005;28;20028;-61
2023/06/24 01:21:25;;;;;;;4.25;2.75;;;19.50;59.70;;;;;;5044209;28;20033;-62
2023/06/24 01:24:00;;;;;;;5.63;3.30;;;19.60;59.60;;;;;;5045051;28;20028;-62
2023/06/24 01:27:01;;;;;;;22.48;12.20;;;19.60;59.20;;;;;;5045050;28;20048;-62
2023/06/24 01:29:57;;;;;;;21.73;10.77;;;19.60;59.00;;;;;;5029407;28;20041;-61
2023/06/24 01:32:44;;;;;;;25.63;10.93;;;19.60;58.90;;;;;;5041690;28;20108;-62
2023/06/24 01:35:20;;;;;;;11.75;6.30;;;19.50;59.00;;;;;;5043748;28;20042;-61
2023/06/24 01:37:51;;;;;;;6.03;3.97;;;19.50;59.20;;;;;;5043573;28;20082;-62
2023/06/24 01:40:27;;;;;;;6.15;3.53;;;19.50;59.20;;;;;;5043439;28;20037;-62
2023/06/24 01:42:57;;;;;;;5.30;3.55;;;19.50;59.70;;;;;;5043595;28;20025;-62
2023/06/24 01:45:32;;;;;;;5.50;3.45;;;19.50;59.60;;;;;;5043709;28;20075;-62
2023/06/24 01:48:34;;;;;;;4.47;3.17;;;19.50;60.20;;;;;;5039138;28;20040;-62
2023/06/24 01:51:19;;;;;;;4.28;3.03;;;19.50;60.00;;;;;;4961272;29;20102;-62
2023/06/24 01:53:51;;;;;;;4.68;2.80;;;19.50;59.70;;;;;;4962875;29;20070;-62
2023/06/24 01:56:18;;;;;;;5.75;2.80;;;19.50;59.30;;;;;;4962984;29;20050;-62
2023/06/24 01:58:46;;;;;;;3.58;2.83;;;19.50;59.20;;;;;;4962939;29;20019;-62
2023/06/24 02:01:13;;;;;;;3.65;2.75;;;19.50;59.20;;;;;;4963824;29;20046;-61
2023/06/24 02:03:41;;;;;;;5.13;2.72;;;19.50;59.30;;;;;;4958639;29;20039;-62
2023/06/24 02:06:09;;;;;;;3.45;2.50;;;19.40;59.10;;;;;;4965095;29;20043;-62
2023/06/24 02:08:38;;;;;;;4.18;2.80;;;19.40;59.10;;;;;;4965467;29;20094;-62
2023/06/24 02:11:05;;;;;;;3.00;2.70;;;19.30;59.20;;;;;;4964802;29;20128;-61
2023/06/24 02:13:35;;;;;;;3.95;3.00;;;19.30;59.10;;;;;;4963333;29;20071;-61
2023/06/24 02:16:03;;;;;;;3.58;3.00;;;19.30;59.20;;;;;;4962853;29;20067;-62
2023/06/24 02:18:29;;;;;;;5.57;3.03;;;19.20;59.00;;;;;;4962561;29;20054;-62
2023/06/24 02:20:56;;;;;;;3.50;2.58;;;19.20;59.00;;;;;;4962266;29;20036;-62
2023/06/24 02:23:23;;;;;;;4.18;3.00;;;19.10;59.10;;;;;;4963461;29;20075;-61
2023/06/24 02:25:50;;;;;;;6.90;3.28;;;19.00;59.20;;;;;;4976014;28;20429;-62
2023/06/24 02:28:17;;;;;;;3.97;2.78;;;19.00;59.30;;;;;;5042185;28;20096;-62
2023/06/24 02:30:44;;;;;;;4.03;2.60;;;18.90;59.50;;;;;;5043208;28;20028;-62
2023/06/24 02:33:11;;;;;;;3.88;2.92;;;18.80;59.70;;;;;;5044205;28;20037;-61
2023/06/24 02:35:37;;;;;;;4.88;2.83;;;18.80;59.90;;;;;;5042895;28;20045;-61
2023/06/24 02:38:04;;;;;;;3.92;2.83;;;18.70;60.30;;;;;;5042511;28;20087;-62
2023/06/24 02:40:30;;;;;;;4.53;3.10;;;18.70;60.50;;;;;;5044254;28;20030;-62
2023/06/24 02:42:57;;;;;;;5.85;3.20;;;18.60;60.70;;;;;;5043077;28;20057;-60
2023/06/24 02:45:23;;;;;;;7.72;2.90;;;18.60;60.80;;;;;;5037967;28;20037;-61
2023/06/24 02:47:50;;;;;;;3.00;2.65;;;18.60;60.70;;;;;;5042730;28;20048;-62
2023/06/24 02:50:16;;;;;;;3.38;2.90;;;18.50;60.70;;;;;;5043619;28;20017;-61
2023/06/24 02:52:43;;;;;;;6.88;2.97;;;18.40;60.80;;;;;;5042582;28;20056;-62
2023/06/24 02:55:09;;;;;;;4.03;3.10;;;18.40;61.00;;;;;;5042608;28;20453;-62
2023/06/24 02:57:36;;;;;;;3.53;2.83;;;18.30;60.90;;;;;;5043422;28;20048;-62
2023/06/24 03:00:05;;;;;;;6.43;3.00;;;18.30;61.00;;;;;;5042529;28;20024;-61
2023/06/24 03:02:32;;;;;;;4.78;3.25;;;18.20;61.80;;;;;;5024442;28;20051;-60
2023/06/24 03:05:02;;;;;;;5.55;3.20;;;18.20;61.30;;;;;;5038183;28;20032;-61
2023/06/24 03:07:30;;;;;;;3.22;2.75;;;18.10;61.50;;;;;;5042387;28;20321;-61
2023/06/24 03:09:55;;;;;;;3.72;2.97;;;18.00;61.60;;;;;;5043057;28;20089;-61
2023/06/24 03:12:21;;;;;;;3.42;2.75;;;18.10;61.80;;;;;;5042292;28;20025;-60
2023/06/24 03:14:47;;;;;;;5.28;2.65;;;18.00;61.90;;;;;;5037845;28;20037;-62
2023/06/24 03:17:13;;;;;;;6.25;2.90;;;18.00;62.20;;;;;;5043000;28;20112;-62
2023/06/24 03:19:38;;;;;;;4.45;2.78;;;18.00;62.20;;;;;;5041942;28;20033;-62
2023/06/24 03:22:04;;;;;;;5.85;2.80;;;18.00;62.20;;;;;;5042077;28;20087;-62
2023/06/24 03:24:30;;;;;;;3.10;2.53;;;17.90;62.20;;;;;;5041902;28;20132;-62
2023/06/24 03:26:56;;;;;;;3.80;2.90;;;17.90;62.10;;;;;;5043273;28;20038;-61
2023/06/24 03:29:25;;;;;;;4.35;2.78;;;17.90;61.90;;;;;;5041618;28;20022;-62
2023/06/24 03:31:51;;;;;;;3.65;2.92;;;17.80;62.10;;;;;;5041753;28;20036;-61
2023/06/24 03:34:16;;;;;;;3.70;2.72;;;17.90;62.10;;;;;;5041884;28;20241;-62
2023/06/24 03:36:42;;;;;;;4.90;2.65;;;17.80;62.30;;;;;;5042411;28;20017;-61
2023/06/24 03:39:08;;;;;;;3.47;2.83;;;17.90;62.60;;;;;;5040913;28;20528;-61
2023/06/24 03:41:34;;;;;;;3.47;2.90;;;17.90;62.80;;;;;;5040811;28;20044;-62
2023/06/24 03:44:00;;;;;;;4.05;2.58;;;17.90;62.90;;;;;;5039038;28;20028;-62
2023/06/24 03:46:26;;;;;;;4.28;3.00;;;17.80;62.70;;;;;;5041279;28;20041;-62
2023/06/24 03:48:51;;;;;;;4.10;2.55;;;17.80;62.70;;;;;;5041486;28;20135;-62
2023/06/24 03:51:17;;;;;;;3.42;2.83;;;17.90;62.70;;;;;;5042452;28;20063;-61
2023/06/24 03:53:43;;;;;;;4.78;3.10;;;17.90;62.60;;;;;;5041357;28;20098;-62
2023/06/24 03:56:09;;;;;;;4.53;3.25;;;17.90;62.50;;;;;;5041618;28;20022;-62
2023/06/24 03:58:34;;;;;;;6.20;2.50;;;17.90;62.80;;;;;;5037422;28;20085;-61
2023/06/24 04:01:02;;;;;;;5.20;3.17;;;17.90;63.10;;;;;;5045845;28;20038;-61
2023/06/24 04:03:28;;;;;;;5.38;3.10;;;17.90;63.30;;;;;;5031168;28;20034;-61
2023/06/24 04:05:55;;;;;;;14.32;2.80;;;17.90;63.40;;;;;;5041577;28;20028;-61
2023/06/24 04:08:22;;;;;;;3.83;2.97;;;17.90;63.50;;;;;;5042036;28;20022;-60
2023/06/24 04:10:47;;;;;;;3.22;2.65;;;17.90;63.70;;;;;;5041350;28;20025;-61
2023/06/24 04:13:13;;;;;;;4.72;3.10;;;17.90;63.70;;;;;;5040949;28;20040;-62
2023/06/24 04:15:39;;;;;;;5.05;2.90;;;18.00;63.80;;;;;;5040692;28;20100;-62
2023/06/24 04:18:04;;;;;;;8.98;3.05;;;18.00;63.90;;;;;;5041372;28;20029;-61
2023/06/24 04:20:30;;;;;;;3.22;2.92;;;18.00;63.80;;;;;;5041027;28;20045;-62
2023/06/24 04:22:55;;;;;;;5.70;2.85;;;18.10;63.80;;;;;;5040373;28;20029;-62
2023/06/24 04:25:21;;;;;;;3.20;2.88;;;18.10;63.80;;;;;;5041412;28;20053;-61
2023/06/24 04:27:47;;;;;;;3.75;2.72;;;18.10;63.80;;;;;;5040995;28;20057;-61
2023/06/24 04:30:12;;;;;;;5.45;3.00;;;18.20;63.90;;;;;;5040819;28;20034;-61
2023/06/24 04:32:38;;;;;;;2.80;2.50;;;18.20;63.80;;;;;;5041614;28;20026;-61
2023/06/24 04:35:04;;;;;;;5.38;2.65;;;18.20;63.80;;;;;;5038703;28;20048;-62
2023/06/24 04:37:30;;;;;;;3.20;2.90;;;18.30;63.90;;;;;;5040266;28;20100;-62
2023/06/24 04:39:56;;;;;;;3.72;2.88;;;18.30;63.90;;;;;;5039821;28;20037;-62
2023/06/24 04:42:22;;;;;;;3.58;2.88;;;18.40;63.90;;;;;;5041384;28;20041;-62
2023/06/24 04:44:50;;;;;;;5.95;3.15;;;18.50;63.90;;;;;;5040501;28;20025;-62
2023/06/24 04:47:17;;;;;;;4.32;2.70;;;18.50;63.70;;;;;;5040684;28;20120;-62
2023/06/24 04:49:43;;;;;;;4.50;2.90;;;18.60;63.70;;;;;;5040131;28;20024;-63
2023/06/24 04:52:10;;;;;;;6.63;2.65;;;18.70;63.80;;;;;;5041341;28;20025;-62
2023/06/24 04:54:36;;;;;;;3.85;2.70;;;18.70;63.70;;;;;;5022481;28;20029;-62
2023/06/24 04:57:01;;;;;;;3.80;2.75;;;18.80;63.40;;;;;;5040663;28;20056;-62
2023/06/24 04:59:28;;;;;;;3.47;2.60;;;18.90;63.50;;;;;;5023473;28;20033;-61
2023/06/24 05:01:54;;;;;;;4.55;3.10;;;19.00;63.40;;;;;;5040342;28;20025;-61
2023/06/24 05:04:20;;;;;;;6.40;3.22;;;19.00;63.40;;;;;;5040384;28;20085;-61
2023/06/24 05:06:45;;;;;;;5.82;2.88;;;19.10;63.90;;;;;;5040107;28;20075;-62
2023/06/24 05:09:13;;;;;;;5.03;2.67;;;19.20;63.20;;;;;;5033003;28;20091;-61
2023/06/24 05:11:40;;;;;;;3.72;3.13;;;19.30;63.00;;;;;;5040420;28;20481;-61
2023/06/24 05:14:05;;;;;;;5.43;3.38;;;19.40;62.80;;;;;;5040240;28;20021;-61
2023/06/24 05:16:31;;;;;;;6.20;3.13;;;19.50;62.70;;;;;;5023403;28;20037;-61
2023/06/24 05:18:57;;;;;;;4.57;3.13;;;19.50;62.50;;;;;;5040232;28;20022;-62
2023/06/24 05:21:22;;;;;;;4.20;2.92;;;19.60;63.30;;;;;;5040372;28;20041;-61
2023/06/24 05:23:48;;;;;;;4.50;3.10;;;19.80;62.80;;;;;;5040423;28;20041;-61
2023/06/24 05:26:14;;;;;;;5.57;3.30;;;19.90;62.70;;;;;;5040090;28;20041;-61
2023/06/24 05:28:40;;;;;;;6.30;3.28;;;20.00;62.40;;;;;;5039969;28;20030;-62
2023/06/24 05:31:05;;;;;;;5.53;3.45;;;20.10;62.40;;;;;;5040405;28;20044;-62
2023/06/24 05:33:31;;;;;;;4.53;3.67;;;20.20;62.30;;;;;;5040426;28;20083;-61
2023/06/24 05:35:57;;;;;;;3.65;3.30;;;20.40;62.10;;;;;;5040068;28;20091;-61
2023/06/24 05:38:23;;;;;;;4.50;3.35;;;20.50;61.80;;;;;;5035180;28;20099;-61
2023/06/24 05:40:48;;;;;;;4.95;3.53;;;20.60;61.30;;;;;;5040959;28;20029;-61
2023/06/24 05:43:14;;;;;;;5.38;3.63;;;20.70;61.10;;;;;;5039955;28;20029;-61
2023/06/24 05:45:40;;;;;;;4.47;3.35;;;20.90;60.90;;;;;;5040144;28;20033;-62
2023/06/24 05:48:06;;;;;;;4.80;3.45;;;21.00;60.50;;;;;;5040937;28;20064;-61
2023/06/24 05:50:31;;;;;;;5.20;2.95;;;21.10;60.00;;;;;;5039651;28;20025;-62
2023/06/24 05:52:58;;;;;;;4.63;3.30;;;21.20;59.20;;;;;;5040109;28;20033;-61
2023/06/24 05:55:23;;;;;;;5.90;3.13;;;21.30;59.20;;;;;;5039333;28;20106;-62
2023/06/24 05:57:49;;;;;;;3.00;2.70;;;21.40;59.00;;;;;;5040494;28;20033;-62
2023/06/24 06:00:15;;;;;;;3.25;2.63;;;21.50;58.30;;;;;;5040186;28;20071;-62
2023/06/24 06:02:40;;;;;;;3.53;2.97;;;21.60;57.90;;;;;;5041939;28;20470;-63
2023/06/24 06:05:06;;;;;;;3.92;2.92;;;21.70;57.50;;;;;;5044362;28;20028;-62
2023/06/24 06:07:32;;;;;;;4.00;2.63;;;21.80;57.20;;;;;;5043187;28;20407;-62
2023/06/24 06:09:57;;;;;;;4.57;3.15;;;21.80;56.70;;;;;;5043241;28;20043;-62
2023/06/24 06:12:23;;;;;;;4.25;2.63;;;21.90;56.40;;;;;;5039789;28;20116;-61
2023/06/24 06:14:49;;;;;;;4.18;2.83;;;21.90;56.40;;;;;;5043316;28;21018;-62
2023/06/24 06:17:15;;;;;;;3.85;2.78;;;22.00;56.10;;;;;;5043056;28;20085;-60
2023/06/24 06:19:41;;;;;;;3.58;2.53;;;22.10;56.10;;;;;;5043400;28;20033;-62
2023/06/24 06:22:08;;;;;;;4.82;3.03;;;22.20;56.10;;;;;;5043804;28;20099;-62
2023/06/24 06:24:34;;;;;;;4.53;2.65;;;22.30;55.40;;;;;;5042929;28;20052;-62
2023/06/24 06:26:59;;;;;;;8.00;2.83;;;22.40;55.30;;;;;;5043035;28;20124;-62
2023/06/24 06:29:25;;;;;;;4.05;2.67;;;22.50;55.00;;;;;;5043821;28;20026;-62
2023/06/24 06:31:52;;;;;;;3.60;2.78;;;22.70;54.70;;;;;;5042900;28;20022;-62
2023/06/24 06:34:18;;;;;;;5.80;2.88;;;22.70;54.50;;;;;;5038645;28;20127;-61
2023/06/24 06:36:44;;;;;;;6.70;2.85;;;22.80;54.80;;;;;;5038122;28;20121;-62
2023/06/24 06:39:09;;;;;;;3.47;2.80;;;23.00;54.80;;;;;;5045038;28;20153;-62
2023/06/24 06:41:35;;;;;;;4.07;3.00;;;23.10;54.70;;;;;;5045430;28;20037;-62
2023/06/24 06:44:00;;;;;;;5.72;2.80;;;23.30;54.00;;;;;;5045543;28;20030;-61
2023/06/24 06:46:27;;;;;;;3.33;2.65;;;23.40;53.80;;;;;;5045430;28;20038;-62
2023/06/24 06:48:52;;;;;;;3.10;2.65;;;23.50;53.20;;;;;;5043019;28;20025;-61
2023/06/24 06:51:21;;;;;;;4.50;2.83;;;23.60;53.20;;;;;;5044821;28;20029;-61
2023/06/24 06:53:46;;;;;;;6.07;2.70;;;23.60;53.20;;;;;;5050849;28;20033;-62
2023/06/24 06:56:22;;;;;;;3.35;2.30;;;23.80;52.80;;;;;;5046615;28;20072;-61
2023/06/24 06:58:47;;;;;;;4.63;2.85;;;23.90;52.10;;;;;;5037154;28;20030;-61
2023/06/24 07:01:13;;;;;;;5.38;2.75;;;24.00;52.50;;;;;;5044217;28;20025;-63
2023/06/24 07:03:39;;;;;;;5.05;2.60;;;24.10;52.30;;;;;;5042561;28;20044;-61
2023/06/24 07:06:05;;;;;;;2.97;2.58;;;24.20;51.70;;;;;;5041988;28;20029;-62
2023/06/24 07:08:31;;;;;;;5.80;2.50;;;24.30;51.30;;;;;;5043391;28;20029;-62
2023/06/24 07:10:56;;;;;;;3.15;2.40;;;24.40;51.10;;;;;;5042195;28;20524;-62
2023/06/24 07:13:22;;;;;;;2.75;2.05;;;24.50;50.30;;;;;;5037257;28;20025;-61
2023/06/24 07:15:47;;;;;;;3.78;2.25;;;24.50;50.20;;;;;;5043303;28;20038;-61
2023/06/24 07:18:13;;;;;;;2.75;2.40;;;24.60;49.90;;;;;;5041850;28;20033;-61
2023/06/24 07:20:39;;;;;;;5.50;2.33;;;24.70;49.30;;;;;;5041807;28;20040;-62
2023/06/24 07:23:04;;;;;;;2.92;2.20;;;24.70;48.90;;;;;;5025277;28;20029;-61
2023/06/24 07:25:30;;;;;;;3.22;2.28;;;24.70;48.80;;;;;;5041763;28;20119;-61
2023/06/24 07:27:56;;;;;;;2.80;2.20;;;24.70;48.50;;;;;;5041911;28;20033;-62
2023/06/24 07:30:22;;;;;;;3.13;2.38;;;24.70;48.70;;;;;;5024505;28;20014;-61
2023/06/24 07:32:47;;;;;;;4.32;2.50;;;24.70;48.20;;;;;;5043151;28;20084;-62
2023/06/24 07:35:15;;;;;;;3.00;2.47;;;24.70;48.50;;;;;;5041470;28;20025;-62
2023/06/24 07:37:41;;;;;;;4.88;2.58;;;24.70;49.00;;;;;;5041777;28;20475;-61
2023/06/24 07:40:07;;;;;;;2.95;2.42;;;24.70;48.40;;;;;;5042265;28;20037;-61
2023/06/24 07:42:33;;;;;;;4.13;2.63;;;24.70;48.50;;;;;;5041655;28;20048;-62
2023/06/24 07:44:59;;;;;;;4.10;2.60;;;24.70;48.70;;;;;;5041709;28;20053;-61
2023/06/24 07:47:25;;;;;;;3.20;2.90;;;24.80;48.30;;;;;;5041560;28;20041;-62
2023/06/24 07:49:51;;;;;;;5.00;2.38;;;24.80;47.50;;;;;;5042143;28;20071;-61
2023/06/24 07:52:17;;;;;;;3.22;2.33;;;24.90;48.70;;;;;;5037385;28;20081;-61
2023/06/24 07:54:43;;;;;;;3.30;2.50;;;24.90;48.70;;;;;;5023161;28;20025;-61
2023/06/24 07:57:08;;;;;;;3.70;2.50;;;25.00;49.10;;;;;;5042378;28;20037;-61
2023/06/24 07:59:34;;;;;;;3.17;2.45;;;25.10;49.40;;;;;;5042284;28;20092;-61
2023/06/24 08:02:00;;;;;;;4.22;2.40;;;25.20;49.20;;;;;;5023302;28;20022;-61
2023/06/24 08:04:25;;;;;;;3.17;2.17;;;25.40;49.30;;;;;;5041948;28;20025;-61
2023/06/24 08:06:51;;;;;;;3.00;2.63;;;25.60;49.10;;;;;;5040973;28;20041;-62
2023/06/24 08:09:17;;;;;;;4.85;3.13;;;25.80;48.80;;;;;;5039506;28;20029;-61
2023/06/24 08:11:43;;;;;;;3.03;2.50;;;26.00;48.20;;;;;;5040660;28;20105;-62
2023/06/24 08:14:09;;;;;;;5.95;2.65;;;26.10;48.20;;;;;;5042035;28;20021;-62
2023/06/24 08:16:35;;;;;;;3.47;2.95;;;26.20;48.20;;;;;;5041011;28;20052;-62
2023/06/24 08:19:00;;;;;;;2.88;2.33;;;26.30;47.10;;;;;;5040558;28;20533;-63
2023/06/24 08:21:26;;;;;;;3.15;2.55;;;26.30;46.70;;;;;;5042030;28;20500;-62
2023/06/24 08:23:52;;;;;;;3.58;2.70;;;26.30;46.60;;;;;;5040940;28;20109;-62
2023/06/24 08:26:20;;;;;;;3.92;2.67;;;26.30;46.40;;;;;;5037230;28;20041;-61
2023/06/24 08:28:47;;;;;;;4.80;2.97;;;26.30;46.80;;;;;;5040745;28;20098;-61
2023/06/24 08:31:12;;;;;;;2.65;2.45;;;26.30;46.70;;;;;;5039488;28;20102;-62
2023/06/24 08:33:38;;;;;;;4.38;2.70;;;26.30;46.30;;;;;;5040881;28;20033;-61
2023/06/24 08:36:04;;;;;;;6.63;2.45;;;26.40;46.10;;;;;;5040945;28;20025;-62
2023/06/24 08:38:29;;;;;;;3.20;2.40;;;26.50;46.00;;;;;;5041099;28;20433;-61
2023/06/24 08:40:56;;;;;;;5.53;2.65;;;26.50;46.00;;;;;;5040530;28;20037;-61
2023/06/24 08:43:21;;;;;;;6.32;3.05;;;26.60;45.40;;;;;;5040913;28;20033;-62
2023/06/24 08:45:47;;;;;;;3.67;2.53;;;26.70;45.60;;;;;;5041707;28;20061;-62
2023/06/24 08:48:14;;;;;;;2.92;2.30;;;26.80;45.60;;;;;;5040407;28;20065;-62
2023/06/24 08:50:50;;;;;;;2.53;2.33;;;27.00;45.60;;;;;;5040499;28;20464;-61
2023/06/24 08:53:18;;;;;;;5.20;2.88;;;27.10;44.80;;;;;;5040383;28;20071;-62
2023/06/24 08:55:45;;;;;;;4.75;2.65;;;27.30;45.70;;;;;;5040369;28;20045;-62
2023/06/24 08:58:11;;;;;;;2.80;2.50;;;27.40;45.50;;;;;;5041201;28;20108;-62
2023/06/24 09:00:37;;;;;;;4.22;2.60;;;27.60;45.20;;;;;;5040656;28;20060;-61
2023/06/24 09:03:03;;;;;;;4.78;3.03;;;27.70;44.20;;;;;;5040323;28;20504;-63
2023/06/24 09:05:28;;;;;;;3.97;2.70;;;27.80;44.20;;;;;;5040244;28;20030;-62
2023/06/24 09:07:55;;;;;;;3.78;2.50;;;27.90;43.80;;;;;;5041338;28;20040;-63
2023/06/24 09:10:35;;;;;;;3.17;2.53;;;28.00;43.70;;;;;;5040129;28;20052;-63
2023/06/24 09:13:02;;;;;;;3.25;2.20;;;28.10;42.90;;;;;;5040357;28;20052;-62
2023/06/24 09:15:34;;;;;;;2.70;2.20;;;28.10;43.40;;;;;;5040128;28;20033;-61
2023/06/24 09:18:01;;;;;;;3.28;2.58;;;28.20;42.80;;;;;;5040306;28;20109;-61
2023/06/24 09:20:27;;;;;;;4.32;2.15;;;28.30;43.90;;;;;;5041394;28;20025;-61
2023/06/24 09:22:59;;;;;;;3.83;2.83;;;28.40;44.00;;;;;;5033141;28;20026;-63
2023/06/24 09:25:25;;;;;;;3.25;2.50;;;28.60;42.70;;;;;;5040400;28;20049;-62
2023/06/24 09:27:55;;;;;;;5.18;3.10;;;28.70;42.80;;;;;;5037633;28;20084;-63
2023/06/24 09:30:23;;;;;;;4.63;2.72;;;28.70;41.90;;;;;;5047376;28;20112;-62
2023/06/24 09:32:49;;;;;;;3.25;2.58;;;28.80;42.00;;;;;;5025373;28;20028;-62
2023/06/24 09:35:19;;;;;;;4.00;2.35;;;28.90;41.90;;;;;;5040122;28;20095;-62
2023/06/24 09:37:53;;;;;;;3.22;2.60;;;29.00;42.10;;;;;;5043761;28;20021;-63
2023/06/24 09:40:19;;;;;;;;;;;29.10;40.90;;;;;;5044390;28;20083;-63
2023/06/24 09:43:19;;;;;;;5.25;2.38;;;29.20;41.80;;;;;;5043681;28;19941;-63
2023/06/24 09:45:49;;;;;;;3.55;2.53;;;29.30;42.80;;;;;;5042044;28;20029;-62
2023/06/24 09:48:15;;;;;;;3.55;2.63;;;29.50;41.50;;;;;;5023375;28;20041;-62
2023/06/24 09:50:40;;;;;;;5.45;2.72;;;29.50;41.50;;;;;;5043584;28;20028;-62
2023/06/24 09:53:06;;;;;;;5.13;2.90;;;29.60;40.70;;;;;;5043760;28;20017;-62
2023/06/24 09:55:32;;;;;;;5.57;2.78;;;29.60;41.30;;;;;;5044337;28;20025;-61
2023/06/24 09:57:58;;;;;;;3.05;2.40;;;29.60;39.70;;;;;;5043386;28;20037;-62
2023/06/24 10:00:26;;;;;;;3.30;2.45;;;29.60;39.40;;;;;;5041870;28;20025;-62
2023/06/24 10:02:54;;;;;;;3.63;2.50;;;29.50;38.90;;;;;;5036423;28;20028;-62
2023/06/24 10:05:19;;;;;;;4.45;2.67;;;29.50;37.80;;;;;;5044406;28;20136;-62
2023/06/24 10:07:45;;;;;;;3.97;2.92;;;29.50;39.80;;;;;;5043649;28;20060;-62
2023/06/24 10:10:12;;;;;;;3.38;2.60;;;29.40;39.90;;;;;;5043185;28;20033;-62
2023/06/24 10:12:38;;;;;;;4.28;2.20;;;29.50;39.60;;;;;;5044267;28;20036;-64
2023/06/24 10:15:05;;;;;;;2.80;2.40;;;29.60;39.80;;;;;;5045384;28;20235;-63
2023/06/24 10:17:31;;;;;;;3.05;2.65;;;29.60;40.20;;;;;;5046538;28;20032;-63
2023/06/24 10:19:56;;;;;;;3.30;2.70;;;29.70;39.60;;;;;;5039300;28;20108;-62
2023/06/24 10:22:26;;;;;;;2.72;2.17;;;29.80;37.40;;;;;;5044151;28;20022;-62
2023/06/24 10:24:52;;;;;;;3.35;2.30;;;29.70;38.20;;;;;;5042974;28;20441;-62
2023/06/24 10:27:23;;;;;;;5.85;2.25;;;29.70;39.50;;;;;;5042729;28;20064;-62
2023/06/24 10:29:52;;;;;;;4.10;2.58;;;29.70;39.40;;;;;;5040980;28;20025;-63
2023/06/24 10:32:19;;;;;;;5.43;2.50;;;29.80;39.40;;;;;;5043004;28;20029;-63
2023/06/24 10:34:46;;;;;;;3.80;2.70;;;29.90;39.20;;;;;;5043816;28;20022;-63
2023/06/24 10:37:24;;;;;;;3.20;2.40;;;29.90;38.40;;;;;;5042911;28;20136;-61
2023/06/24 10:39:51;;;;;;;2.75;2.00;;;29.90;38.70;;;;;;5042484;28;20061;-63
2023/06/24 10:42:31;;;;;;;2.85;2.58;;;30.00;39.50;;;;;;5042605;28;20444;-63
2023/06/24 10:45:13;;;;;;;4.50;2.30;;;30.10;38.10;;;;;;5042860;28;20026;-62
2023/06/24 10:47:43;;;;;;;5.63;2.63;;;30.10;38.20;;;;;;5038927;28;20128;-63
2023/06/24 10:50:18;;;;;;;4.35;2.70;;;30.10;37.40;;;;;;5042652;28;20449;-62
2023/06/24 10:52:50;;;;;;;3.92;2.50;;;30.00;36.10;;;;;;5042410;28;20080;-63
2023/06/24 10:55:18;;;;;;;2.35;2.15;;;29.70;35.70;;;;;;5042600;28;20080;-62
2023/06/24 10:57:45;;;;;;;3.80;2.72;;;29.50;37.50;;;;;;5036946;28;20121;-63
2023/06/24 11:00:12;;;;;;;3.22;2.50;;;29.40;38.50;;;;;;5042269;28;20026;-63
2023/06/24 11:02:37;;;;;;;4.35;2.55;;;29.30;37.70;;;;;;5043529;28;20029;-62
2023/06/24 11:05:04;;;;;;;3.90;2.80;;;29.20;38.20;;;;;;5042488;28;20033;-62
2023/06/24 11:07:34;;;;;;;3.25;2.40;;;29.20;37.90;;;;;;5041964;28;20060;-62
2023/06/24 11:10:08;;;;;;;3.38;2.38;;;29.20;38.10;;;;;;5024425;28;20025;-63
2023/06/24 11:12:35;;;;;;;3.03;2.50;;;29.20;37.90;;;;;;5039668;28;20045;-65
2023/06/24 11:15:03;;;;;;;2.60;2.40;;;29.20;38.20;;;;;;5035201;28;20360;-62
2023/06/24 11:17:29;;;;;;;5.72;2.33;;;29.10;37.50;;;;;;5041759;28;20025;-64
2023/06/24 11:19:56;;;;;;;2.97;2.10;;;29.00;37.80;;;;;;5042262;28;20372;-63
2023/06/24 11:22:22;;;;;;;2.60;2.33;;;28.90;37.80;;;;;;5040522;28;20052;-63
2023/06/24 11:24:48;;;;;;;3.17;2.45;;;28.80;38.00;;;;;;5042348;28;20049;-63
2023/06/24 11:27:14;;;;;;;4.72;2.70;;;28.70;38.40;;;;;;5045938;28;20045;-63
2023/06/24 11:29:39;;;;;;;3.67;2.35;;;28.50;38.40;;;;;;5043126;28;20026;-61
2023/06/24 11:32:09;;;;;;;5.43;2.25;;;28.50;38.20;;;;;;5039915;28;20510;-61
2023/06/24 11:34:36;;;;;;;5.25;2.33;;;28.30;37.80;;;;;;5041764;28;20021;-62
2023/06/24 11:37:16;;;;;;;4.75;2.67;;;28.20;37.90;;;;;;5041363;28;20025;-62
2023/06/24 11:39:43;;;;;;;3.65;2.20;;;28.10;37.80;;;;;;4987505;28;20112;-62
2023/06/24 11:42:09;;;;;;;2.78;2.28;;;28.00;39.30;;;;;;5041455;28;20037;-62
2023/06/24 11:44:35;;;;;;;3.00;2.40;;;28.10;39.30;;;;;;5043174;28;20014;-60
2023/06/24 11:47:08;;;;;;;2.83;2.35;;;28.20;39.20;;;;;;5041435;28;20111;-61
2023/06/24 11:49:54;;;;;;;2.28;1.90;;;28.30;38.70;;;;;;5041094;28;20025;-62
2023/06/24 11:52:44;;;;;;;2.25;2.05;;;28.40;39.20;;;;;;5038747;28;20033;-62
2023/06/24 11:55:18;;;;;;;4.20;2.35;;;28.50;40.80;;;;;;5039473;28;20029;-61
2023/06/24 11:58:01;;;;;;;3.60;2.33;;;28.70;38.60;;;;;;5035797;28;20025;-62
2023/06/24 12:00:29;;;;;;;3.03;2.10;;;28.90;39.30;;;;;;5040628;28;20017;-61
2023/06/24 12:03:02;;;;;;;2.42;1.67;;;29.20;39.10;;;;;;5041039;28;20028;-62
2023/06/24 12:05:29;;;;;;;4.20;1.45;;;29.40;36.70;;;;;;5040927;28;20041;-61
2023/06/24 12:08:02;;;;;;;2.88;2.08;;;29.60;37.30;;;;;;5041547;28;20025;-64
2023/06/24 12:10:29;;;;;;;3.38;2.30;;;29.80;37.00;;;;;;5038619;28;20021;-60
2023/06/24 12:12:57;;;;;;;2.55;2.20;;;30.10;37.50;;;;;;5033457;28;20455;-61
2023/06/24 12:15:23;;;;;;;3.00;2.10;;;30.30;36.10;;;;;;5040480;28;20030;-61
2023/06/24 12:17:48;;;;;;;4.18;2.13;;;30.50;36.10;;;;;;5040597;28;20041;-61
2023/06/24 12:20:17;;;;;;;3.72;2.25;;;30.50;36.30;;;;;;5041818;28;20029;-61
2023/06/24 12:22:43;;;;;;;2.45;2.08;;;30.60;35.60;;;;;;5040582;28;20045;-61
2023/06/24 12:25:09;;;;;;;3.42;2.25;;;30.70;36.10;;;;;;5040428;28;20072;-61
2023/06/24 12:27:35;;;;;;;2.85;2.30;;;30.80;36.00;;;;;;5040483;28;20033;-61
2023/06/24 12:30:02;;;;;;;2.10;1.90;;;31.00;35.00;;;;;;5041672;28;20049;-62
2023/06/24 12:32:28;;;;;;;3.60;1.95;;;31.00;33.60;;;;;;5048287;28;20024;-62
2023/06/24 12:34:53;;;;;;;2.17;1.90;;;31.10;33.40;;;;;;5047366;28;20026;-62
2023/06/24 12:37:19;;;;;;;2.92;2.15;;;31.20;34.20;;;;;;5041502;28;20029;-62
2023/06/24 12:39:45;;;;;;;2.67;2.13;;;31.20;33.00;;;;;;5040004;28;20033;-62
2023/06/24 12:42:11;;;;;;;2.80;1.92;;;31.20;32.10;;;;;;5040341;28;20030;-62
2023/06/24 12:44:38;;;;;;;2.65;2.00;;;31.20;33.50;;;;;;5041206;28;20488;-62
2023/06/24 12:47:04;;;;;;;5.82;2.20;;;31.20;34.00;;;;;;5041919;28;20026;-61
2023/06/24 12:49:30;;;;;;;3.28;2.13;;;31.20;33.90;;;;;;5040852;28;20032;-62